sensor_id;sensor_type;location;lat;lon;timestamp;P1;durP1;ratioP1;P2;durP2;ratioP2
31732;SDS011;18312;51.486;7.144;2023-08-08T00:01:58;2.35;;;1.35;;
31732;SDS011;18312;51.486;7.144;2023-08-08T00:04:25;3.88;;;1.80;;
31732;SDS011;18312;51.486;7.144;2023-08-08T00:06:52;6.35;;;1.80;;
31732;SDS011;18312;51.486;7.144;2023-08-08T00:09:20;3.25;;;1.80;;
31732;SDS011;18312;51.486;7.144;2023-08-08T00:11:46;5.07;;;1.30;;
31732;SDS011;18312;51.486;7.144;2023-08-08T00:14:13;1.80;;;1.48;;
31732;SDS011;18312;51.486;7.144;2023-08-08T00:16:41;5.03;;;1.30;;
31732;SDS011;18312;51.486;7.144;2023-08-08T00:19:08;4.22;;;1.63;;
31732;SDS011;18312;51.486;7.144;2023-08-08T00:21:34;6.20;;;2.10;;
31732;SDS011;18312;51.486;7.144;2023-08-08T00:24:01;3.90;;;1.63;;
31732;SDS011;18312;51.486;7.144;2023-08-08T00:26:29;4.22;;;1.83;;
31732;SDS011;18312;51.486;7.144;2023-08-08T00:28:56;2.45;;;1.80;;
31732;SDS011;18312;51.486;7.144;2023-08-08T00:31:40;3.80;;;1.63;;
31732;SDS011;18312;51.486;7.144;2023-08-08T00:34:06;3.38;;;1.88;;
31732;SDS011;18312;51.486;7.144;2023-08-08T00:36:33;1.67;;;1.40;;
31732;SDS011;18312;51.486;7.144;2023-08-08T00:39:00;3.85;;;1.50;;
31732;SDS011;18312;51.486;7.144;2023-08-08T00:41:27;2.65;;;1.50;;
31732;SDS011;18312;51.486;7.144;2023-08-08T00:43:55;3.17;;;1.83;;
31732;SDS011;18312;51.486;7.144;2023-08-08T00:46:22;2.67;;;1.27;;
31732;SDS011;18312;51.486;7.144;2023-08-08T00:48:49;4.50;;;1.52;;
31732;SDS011;18312;51.486;7.144;2023-08-08T00:51:16;3.63;;;1.35;;
31732;SDS011;18312;51.486;7.144;2023-08-08T00:53:44;2.55;;;1.58;;
31732;SDS011;18312;51.486;7.144;2023-08-08T00:56:11;2.20;;;1.55;;
31732;SDS011;18312;51.486;7.144;2023-08-08T00:58:39;3.50;;;1.88;;
31732;SDS011;18312;51.486;7.144;2023-08-08T01:01:07;2.22;;;1.42;;
31732;SDS011;18312;51.486;7.144;2023-08-08T01:03:34;4.07;;;1.45;;
31732;SDS011;18312;51.486;7.144;2023-08-08T01:06:13;2.00;;;1.40;;
31732;SDS011;18312;51.486;7.144;2023-08-08T01:08:47;2.45;;;1.10;;
31732;SDS011;18312;51.486;7.144;2023-08-08T01:11:19;2.92;;;1.50;;
31732;SDS011;18312;51.486;7.144;2023-08-08T01:13:46;2.65;;;1.55;;
31732;SDS011;18312;51.486;7.144;2023-08-08T01:16:14;5.28;;;2.22;;
31732;SDS011;18312;51.486;7.144;2023-08-08T01:18:43;1.63;;;1.52;;
31732;SDS011;18312;51.486;7.144;2023-08-08T01:24:00;2.65;;;1.73;;
31732;SDS011;18312;51.486;7.144;2023-08-08T01:26:30;5.20;;;1.58;;
31732;SDS011;18312;51.486;7.144;2023-08-08T01:28:58;3.53;;;1.88;;
31732;SDS011;18312;51.486;7.144;2023-08-08T01:31:24;3.70;;;2.15;;
31732;SDS011;18312;51.486;7.144;2023-08-08T01:33:51;3.92;;;1.70;;
31732;SDS011;18312;51.486;7.144;2023-08-08T01:36:19;3.85;;;2.05;;
31732;SDS011;18312;51.486;7.144;2023-08-08T01:38:50;5.60;;;1.65;;
31732;SDS011;18312;51.486;7.144;2023-08-08T01:41:18;4.10;;;1.67;;
31732;SDS011;18312;51.486;7.144;2023-08-08T01:43:48;7.57;;;1.90;;
31732;SDS011;18312;51.486;7.144;2023-08-08T01:46:16;3.58;;;1.85;;
31732;SDS011;18312;51.486;7.144;2023-08-08T01:48:44;2.55;;;1.73;;
31732;SDS011;18312;51.486;7.144;2023-08-08T01:51:12;3.08;;;1.88;;
31732;SDS011;18312;51.486;7.144;2023-08-08T01:53:38;5.18;;;1.83;;
31732;SDS011;18312;51.486;7.144;2023-08-08T01:56:05;4.10;;;1.58;;
31732;SDS011;18312;51.486;7.144;2023-08-08T01:58:33;5.70;;;1.90;;
31732;SDS011;18312;51.486;7.144;2023-08-08T02:01:01;3.15;;;1.42;;
31732;SDS011;18312;51.486;7.144;2023-08-08T02:03:28;2.33;;;1.52;;
31732;SDS011;18312;51.486;7.144;2023-08-08T02:05:55;2.67;;;1.65;;
31732;SDS011;18312;51.486;7.144;2023-08-08T02:08:21;3.13;;;1.67;;
31732;SDS011;18312;51.486;7.144;2023-08-08T02:10:48;2.13;;;1.50;;
31732;SDS011;18312;51.486;7.144;2023-08-08T02:13:15;2.88;;;2.00;;
31732;SDS011;18312;51.486;7.144;2023-08-08T02:15:42;2.78;;;1.67;;
31732;SDS011;18312;51.486;7.144;2023-08-08T02:18:10;4.90;;;2.10;;
31732;SDS011;18312;51.486;7.144;2023-08-08T02:20:37;7.22;;;1.92;;
31732;SDS011;18312;51.486;7.144;2023-08-08T02:23:04;6.97;;;1.98;;
31732;SDS011;18312;51.486;7.144;2023-08-08T02:25:31;3.97;;;1.90;;
31732;SDS011;18312;51.486;7.144;2023-08-08T02:27:57;4.22;;;2.15;;
31732;SDS011;18312;51.486;7.144;2023-08-08T02:30:24;2.75;;;1.95;;
31732;SDS011;18312;51.486;7.144;2023-08-08T02:32:51;4.63;;;2.10;;
31732;SDS011;18312;51.486;7.144;2023-08-08T02:35:19;7.63;;;2.17;;
31732;SDS011;18312;51.486;7.144;2023-08-08T02:37:46;6.68;;;2.75;;
31732;SDS011;18312;51.486;7.144;2023-08-08T02:40:13;2.78;;;1.40;;
31732;SDS011;18312;51.486;7.144;2023-08-08T02:42:40;10.00;;;2.13;;
31732;SDS011;18312;51.486;7.144;2023-08-08T02:45:07;4.10;;;1.83;;
31732;SDS011;18312;51.486;7.144;2023-08-08T02:47:34;4.13;;;2.05;;
31732;SDS011;18312;51.486;7.144;2023-08-08T02:50:01;8.73;;;2.63;;
31732;SDS011;18312;51.486;7.144;2023-08-08T02:52:29;4.35;;;2.10;;
31732;SDS011;18312;51.486;7.144;2023-08-08T02:54:56;11.02;;;2.55;;
31732;SDS011;18312;51.486;7.144;2023-08-08T02:57:23;5.55;;;2.40;;
31732;SDS011;18312;51.486;7.144;2023-08-08T02:59:50;6.00;;;1.90;;
31732;SDS011;18312;51.486;7.144;2023-08-08T03:02:16;7.20;;;2.38;;
31732;SDS011;18312;51.486;7.144;2023-08-08T03:04:43;9.15;;;2.30;;
31732;SDS011;18312;51.486;7.144;2023-08-08T03:07:10;6.05;;;2.35;;
31732;SDS011;18312;51.486;7.144;2023-08-08T03:09:38;6.32;;;2.40;;
31732;SDS011;18312;51.486;7.144;2023-08-08T03:12:05;3.50;;;2.40;;
31732;SDS011;18312;51.486;7.144;2023-08-08T03:14:33;6.18;;;2.30;;
31732;SDS011;18312;51.486;7.144;2023-08-08T03:17:00;3.45;;;2.13;;
31732;SDS011;18312;51.486;7.144;2023-08-08T03:19:27;7.65;;;2.35;;
31732;SDS011;18312;51.486;7.144;2023-08-08T03:21:54;8.77;;;2.28;;
31732;SDS011;18312;51.486;7.144;2023-08-08T03:24:21;3.50;;;2.00;;
31732;SDS011;18312;51.486;7.144;2023-08-08T03:26:49;6.82;;;2.05;;
31732;SDS011;18312;51.486;7.144;2023-08-08T03:29:16;5.30;;;2.28;;
31732;SDS011;18312;51.486;7.144;2023-08-08T03:31:42;4.82;;;2.90;;
31732;SDS011;18312;51.486;7.144;2023-08-08T03:34:09;4.30;;;2.10;;
31732;SDS011;18312;51.486;7.144;2023-08-08T03:36:36;5.55;;;2.40;;
31732;SDS011;18312;51.486;7.144;2023-08-08T03:39:03;5.28;;;3.47;;
31732;SDS011;18312;51.486;7.144;2023-08-08T03:41:31;9.73;;;2.85;;
31732;SDS011;18312;51.486;7.144;2023-08-08T03:43:59;5.03;;;3.10;;
31732;SDS011;18312;51.486;7.144;2023-08-08T03:46:29;6.20;;;2.97;;
31732;SDS011;18312;51.486;7.144;2023-08-08T03:48:55;6.57;;;3.47;;
31732;SDS011;18312;51.486;7.144;2023-08-08T03:51:22;8.93;;;3.40;;
31732;SDS011;18312;51.486;7.144;2023-08-08T03:53:49;5.85;;;3.17;;
31732;SDS011;18312;51.486;7.144;2023-08-08T03:56:16;9.10;;;4.03;;
31732;SDS011;18312;51.486;7.144;2023-08-08T03:58:42;8.35;;;3.60;;
31732;SDS011;18312;51.486;7.144;2023-08-08T04:01:11;9.32;;;3.28;;
31732;SDS011;18312;51.486;7.144;2023-08-08T04:03:37;7.88;;;3.10;;
31732;SDS011;18312;51.486;7.144;2023-08-08T04:06:04;8.35;;;3.58;;
31732;SDS011;18312;51.486;7.144;2023-08-08T04:08:31;14.23;;;3.50;;
31732;SDS011;18312;51.486;7.144;2023-08-08T04:10:58;6.72;;;3.60;;
31732;SDS011;18312;51.486;7.144;2023-08-08T04:13:25;8.43;;;3.58;;
31732;SDS011;18312;51.486;7.144;2023-08-08T04:15:51;9.85;;;3.83;;
31732;SDS011;18312;51.486;7.144;2023-08-08T04:18:20;7.93;;;3.78;;
31732;SDS011;18312;51.486;7.144;2023-08-08T04:20:46;11.23;;;4.18;;
31732;SDS011;18312;51.486;7.144;2023-08-08T04:23:13;10.80;;;3.92;;
31732;SDS011;18312;51.486;7.144;2023-08-08T04:25:40;8.32;;;3.72;;
31732;SDS011;18312;51.486;7.144;2023-08-08T04:28:07;11.48;;;3.83;;
31732;SDS011;18312;51.486;7.144;2023-08-08T04:30:33;7.05;;;3.50;;
31732;SDS011;18312;51.486;7.144;2023-08-08T04:33:01;8.20;;;3.70;;
31732;SDS011;18312;51.486;7.144;2023-08-08T04:35:29;8.95;;;3.40;;
31732;SDS011;18312;51.486;7.144;2023-08-08T04:37:56;8.95;;;3.78;;
31732;SDS011;18312;51.486;7.144;2023-08-08T04:40:22;10.07;;;3.90;;
31732;SDS011;18312;51.486;7.144;2023-08-08T04:42:49;8.98;;;4.00;;
31732;SDS011;18312;51.486;7.144;2023-08-08T04:45:17;7.45;;;3.72;;
31732;SDS011;18312;51.486;7.144;2023-08-08T04:47:44;11.93;;;3.70;;
31732;SDS011;18312;51.486;7.144;2023-08-08T04:50:09;9.35;;;4.07;;
31732;SDS011;18312;51.486;7.144;2023-08-08T04:52:38;14.13;;;5.97;;
31732;SDS011;18312;51.486;7.144;2023-08-08T04:55:05;9.38;;;4.63;;
31732;SDS011;18312;51.486;7.144;2023-08-08T04:57:32;16.98;;;4.82;;
31732;SDS011;18312;51.486;7.144;2023-08-08T04:59:58;5.57;;;3.88;;
31732;SDS011;18312;51.486;7.144;2023-08-08T05:02:30;9.13;;;5.00;;
31732;SDS011;18312;51.486;7.144;2023-08-08T05:04:56;14.07;;;4.70;;
31732;SDS011;18312;51.486;7.144;2023-08-08T05:07:23;11.18;;;5.70;;
31732;SDS011;18312;51.486;7.144;2023-08-08T05:09:51;12.05;;;5.00;;
31732;SDS011;18312;51.486;7.144;2023-08-08T05:12:18;13.52;;;5.55;;
31732;SDS011;18312;51.486;7.144;2023-08-08T05:14:45;9.38;;;5.35;;
31732;SDS011;18312;51.486;7.144;2023-08-08T05:17:12;23.17;;;6.63;;
31732;SDS011;18312;51.486;7.144;2023-08-08T05:19:39;14.50;;;5.70;;
31732;SDS011;18312;51.486;7.144;2023-08-08T05:22:05;12.43;;;6.15;;
31732;SDS011;18312;51.486;7.144;2023-08-08T05:24:32;13.10;;;5.78;;
31732;SDS011;18312;51.486;7.144;2023-08-08T05:27:03;12.30;;;6.57;;
31732;SDS011;18312;51.486;7.144;2023-08-08T05:29:30;18.35;;;7.05;;
31732;SDS011;18312;51.486;7.144;2023-08-08T05:31:57;21.13;;;6.68;;
31732;SDS011;18312;51.486;7.144;2023-08-08T05:34:24;22.55;;;7.38;;
31732;SDS011;18312;51.486;7.144;2023-08-08T05:36:50;19.45;;;7.93;;
31732;SDS011;18312;51.486;7.144;2023-08-08T05:39:17;13.73;;;8.80;;
31732;SDS011;18312;51.486;7.144;2023-08-08T05:41:45;19.25;;;9.07;;
31732;SDS011;18312;51.486;7.144;2023-08-08T05:44:13;19.17;;;9.45;;
31732;SDS011;18312;51.486;7.144;2023-08-08T05:46:39;22.90;;;9.52;;
31732;SDS011;18312;51.486;7.144;2023-08-08T05:49:06;18.40;;;9.93;;
31732;SDS011;18312;51.486;7.144;2023-08-08T05:51:33;28.42;;;11.63;;
31732;SDS011;18312;51.486;7.144;2023-08-08T05:54:00;18.35;;;9.32;;
31732;SDS011;18312;51.486;7.144;2023-08-08T05:56:33;26.85;;;10.98;;
31732;SDS011;18312;51.486;7.144;2023-08-08T05:59:01;21.45;;;11.82;;
31732;SDS011;18312;51.486;7.144;2023-08-08T06:01:29;25.85;;;11.13;;
31732;SDS011;18312;51.486;7.144;2023-08-08T06:03:56;28.08;;;11.57;;
31732;SDS011;18312;51.486;7.144;2023-08-08T06:06:24;32.70;;;12.18;;
31732;SDS011;18312;51.486;7.144;2023-08-08T06:08:51;27.15;;;12.32;;
31732;SDS011;18312;51.486;7.144;2023-08-08T06:11:18;28.52;;;12.55;;
31732;SDS011;18312;51.486;7.144;2023-08-08T06:13:47;19.02;;;12.30;;
31732;SDS011;18312;51.486;7.144;2023-08-08T06:16:14;35.15;;;13.43;;
31732;SDS011;18312;51.486;7.144;2023-08-08T06:18:42;28.98;;;12.90;;
31732;SDS011;18312;51.486;7.144;2023-08-08T06:21:09;28.45;;;13.10;;
31732;SDS011;18312;51.486;7.144;2023-08-08T06:23:36;27.85;;;13.68;;
31732;SDS011;18312;51.486;7.144;2023-08-08T06:26:03;26.38;;;13.90;;
31732;SDS011;18312;51.486;7.144;2023-08-08T06:28:30;26.48;;;13.27;;
31732;SDS011;18312;51.486;7.144;2023-08-08T06:30:57;26.42;;;14.10;;
31732;SDS011;18312;51.486;7.144;2023-08-08T06:33:24;23.40;;;12.40;;
31732;SDS011;18312;51.486;7.144;2023-08-08T06:35:53;25.50;;;13.35;;
31732;SDS011;18312;51.486;7.144;2023-08-08T06:38:20;29.70;;;14.55;;
31732;SDS011;18312;51.486;7.144;2023-08-08T06:40:47;26.17;;;13.68;;
31732;SDS011;18312;51.486;7.144;2023-08-08T06:43:14;27.70;;;12.63;;
31732;SDS011;18312;51.486;7.144;2023-08-08T06:45:41;29.17;;;14.60;;
31732;SDS011;18312;51.486;7.144;2023-08-08T06:48:08;24.98;;;13.82;;
31732;SDS011;18312;51.486;7.144;2023-08-08T06:50:35;23.58;;;13.20;;
31732;SDS011;18312;51.486;7.144;2023-08-08T06:53:03;20.73;;;12.60;;
31732;SDS011;18312;51.486;7.144;2023-08-08T06:55:30;31.77;;;13.27;;
31732;SDS011;18312;51.486;7.144;2023-08-08T06:57:57;29.52;;;12.52;;
31732;SDS011;18312;51.486;7.144;2023-08-08T07:00:24;30.65;;;13.98;;
31732;SDS011;18312;51.486;7.144;2023-08-08T07:02:52;33.00;;;13.65;;
31732;SDS011;18312;51.486;7.144;2023-08-08T07:05:19;33.28;;;14.27;;
31732;SDS011;18312;51.486;7.144;2023-08-08T07:07:47;26.75;;;14.23;;
31732;SDS011;18312;51.486;7.144;2023-08-08T07:10:16;27.52;;;13.45;;
31732;SDS011;18312;51.486;7.144;2023-08-08T07:12:43;25.05;;;13.77;;
31732;SDS011;18312;51.486;7.144;2023-08-08T07:15:13;28.95;;;14.48;;
31732;SDS011;18312;51.486;7.144;2023-08-08T07:17:41;22.45;;;12.98;;
31732;SDS011;18312;51.486;7.144;2023-08-08T07:20:07;27.17;;;13.98;;
31732;SDS011;18312;51.486;7.144;2023-08-08T07:22:38;26.70;;;13.93;;
31732;SDS011;18312;51.486;7.144;2023-08-08T07:25:06;29.58;;;13.40;;
31732;SDS011;18312;51.486;7.144;2023-08-08T07:27:34;24.67;;;13.55;;
31732;SDS011;18312;51.486;7.144;2023-08-08T07:30:01;27.13;;;13.98;;
31732;SDS011;18312;51.486;7.144;2023-08-08T07:32:28;26.92;;;14.32;;
31732;SDS011;18312;51.486;7.144;2023-08-08T07:34:55;23.38;;;14.27;;
31732;SDS011;18312;51.486;7.144;2023-08-08T07:37:22;27.50;;;13.65;;
31732;SDS011;18312;51.486;7.144;2023-08-08T07:39:50;27.55;;;13.88;;
31732;SDS011;18312;51.486;7.144;2023-08-08T07:42:17;27.75;;;13.00;;
31732;SDS011;18312;51.486;7.144;2023-08-08T07:44:47;22.38;;;13.27;;
31732;SDS011;18312;51.486;7.144;2023-08-08T07:47:14;31.23;;;13.30;;
31732;SDS011;18312;51.486;7.144;2023-08-08T07:49:41;22.42;;;11.02;;
31732;SDS011;18312;51.486;7.144;2023-08-08T07:52:08;19.13;;;10.25;;
31732;SDS011;18312;51.486;7.144;2023-08-08T07:54:35;22.38;;;10.13;;
31732;SDS011;18312;51.486;7.144;2023-08-08T07:57:02;21.58;;;9.82;;
31732;SDS011;18312;51.486;7.144;2023-08-08T07:59:30;15.88;;;9.98;;
31732;SDS011;18312;51.486;7.144;2023-08-08T08:01:58;15.85;;;8.75;;
31732;SDS011;18312;51.486;7.144;2023-08-08T08:04:25;15.27;;;8.18;;
31732;SDS011;18312;51.486;7.144;2023-08-08T08:06:52;14.30;;;7.60;;
31732;SDS011;18312;51.486;7.144;2023-08-08T08:09:18;16.23;;;6.55;;
31732;SDS011;18312;51.486;7.144;2023-08-08T08:11:48;21.30;;;7.35;;
31732;SDS011;18312;51.486;7.144;2023-08-08T08:14:17;13.13;;;6.90;;
31732;SDS011;18312;51.486;7.144;2023-08-08T08:16:46;9.10;;;5.60;;
31732;SDS011;18312;51.486;7.144;2023-08-08T08:19:21;11.10;;;5.30;;
31732;SDS011;18312;51.486;7.144;2023-08-08T08:21:48;9.93;;;5.75;;
31732;SDS011;18312;51.486;7.144;2023-08-08T08:24:15;11.57;;;6.80;;
31732;SDS011;18312;51.486;7.144;2023-08-08T08:26:42;7.82;;;5.50;;
31732;SDS011;18312;51.486;7.144;2023-08-08T08:29:09;8.70;;;4.80;;
31732;SDS011;18312;51.486;7.144;2023-08-08T08:31:38;13.15;;;5.82;;
31732;SDS011;18312;51.486;7.144;2023-08-08T08:34:05;7.20;;;5.28;;
31732;SDS011;18312;51.486;7.144;2023-08-08T08:36:36;9.63;;;4.25;;
31732;SDS011;18312;51.486;7.144;2023-08-08T08:39:03;7.43;;;4.15;;
31732;SDS011;18312;51.486;7.144;2023-08-08T08:41:30;11.07;;;3.90;;
31732;SDS011;18312;51.486;7.144;2023-08-08T08:43:59;8.10;;;4.20;;
31732;SDS011;18312;51.486;7.144;2023-08-08T08:46:27;5.38;;;2.78;;
31732;SDS011;18312;51.486;7.144;2023-08-08T08:48:56;8.27;;;3.53;;
31732;SDS011;18312;51.486;7.144;2023-08-08T08:51:25;6.03;;;2.90;;
31732;SDS011;18312;51.486;7.144;2023-08-08T08:53:54;7.57;;;2.90;;
31732;SDS011;18312;51.486;7.144;2023-08-08T08:56:23;5.72;;;3.25;;
31732;SDS011;18312;51.486;7.144;2023-08-08T08:58:50;7.35;;;2.45;;
31732;SDS011;18312;51.486;7.144;2023-08-08T09:01:17;5.90;;;2.45;;
31732;SDS011;18312;51.486;7.144;2023-08-08T09:03:49;13.75;;;2.55;;
31732;SDS011;18312;51.486;7.144;2023-08-08T09:06:16;6.30;;;2.33;;
31732;SDS011;18312;51.486;7.144;2023-08-08T09:08:45;11.52;;;3.10;;
31732;SDS011;18312;51.486;7.144;2023-08-08T09:11:20;4.45;;;1.67;;
31732;SDS011;18312;51.486;7.144;2023-08-08T09:13:47;8.50;;;2.60;;
31732;SDS011;18312;51.486;7.144;2023-08-08T09:16:23;7.82;;;2.25;;
31732;SDS011;18312;51.486;7.144;2023-08-08T09:18:50;7.35;;;2.75;;
31732;SDS011;18312;51.486;7.144;2023-08-08T09:21:18;4.38;;;1.98;;
31732;SDS011;18312;51.486;7.144;2023-08-08T09:23:45;6.25;;;1.90;;
31732;SDS011;18312;51.486;7.144;2023-08-08T09:26:13;1.95;;;1.50;;
31732;SDS011;18312;51.486;7.144;2023-08-08T09:28:43;4.70;;;1.90;;
31732;SDS011;18312;51.486;7.144;2023-08-08T09:31:11;4.07;;;2.03;;
31732;SDS011;18312;51.486;7.144;2023-08-08T09:33:43;7.68;;;1.73;;
31732;SDS011;18312;51.486;7.144;2023-08-08T09:36:13;8.38;;;1.92;;
31732;SDS011;18312;51.486;7.144;2023-08-08T09:38:40;7.35;;;1.80;;
31732;SDS011;18312;51.486;7.144;2023-08-08T09:41:07;3.67;;;1.60;;
31732;SDS011;18312;51.486;7.144;2023-08-08T09:43:34;5.70;;;1.70;;
31732;SDS011;18312;51.486;7.144;2023-08-08T09:46:03;8.77;;;1.77;;
31732;SDS011;18312;51.486;7.144;2023-08-08T09:48:30;6.90;;;2.17;;
31732;SDS011;18312;51.486;7.144;2023-08-08T09:50:58;3.28;;;1.88;;
31732;SDS011;18312;51.486;7.144;2023-08-08T09:53:25;2.90;;;1.50;;
31732;SDS011;18312;51.486;7.144;2023-08-08T09:55:53;5.22;;;1.92;;
31732;SDS011;18312;51.486;7.144;2023-08-08T09:58:21;8.60;;;2.20;;
31732;SDS011;18312;51.486;7.144;2023-08-08T10:00:48;7.65;;;1.58;;
31732;SDS011;18312;51.486;7.144;2023-08-08T10:03:17;4.68;;;2.05;;
31732;SDS011;18312;51.486;7.144;2023-08-08T10:05:46;6.97;;;1.50;;
31732;SDS011;18312;51.486;7.144;2023-08-08T10:08:14;4.80;;;1.75;;
31732;SDS011;18312;51.486;7.144;2023-08-08T10:10:42;6.25;;;2.08;;
31732;SDS011;18312;51.486;7.144;2023-08-08T10:13:18;3.85;;;1.50;;
31732;SDS011;18312;51.486;7.144;2023-08-08T10:15:46;5.63;;;1.75;;
31732;SDS011;18312;51.486;7.144;2023-08-08T10:18:13;5.22;;;1.65;;
31732;SDS011;18312;51.486;7.144;2023-08-08T10:20:43;7.30;;;2.75;;
31732;SDS011;18312;51.486;7.144;2023-08-08T10:23:14;3.88;;;2.13;;
31732;SDS011;18312;51.486;7.144;2023-08-08T10:25:43;5.18;;;2.10;;
31732;SDS011;18312;51.486;7.144;2023-08-08T10:31:33;2.85;;;1.88;;
31732;SDS011;18312;51.486;7.144;2023-08-08T10:34:01;3.05;;;1.55;;
31732;SDS011;18312;51.486;7.144;2023-08-08T10:36:45;2.60;;;1.63;;
31732;SDS011;18312;51.486;7.144;2023-08-08T10:39:15;6.35;;;1.85;;
31732;SDS011;18312;51.486;7.144;2023-08-08T10:41:46;5.72;;;1.70;;
31732;SDS011;18312;51.486;7.144;2023-08-08T10:44:20;4.75;;;1.50;;
31732;SDS011;18312;51.486;7.144;2023-08-08T10:46:49;6.32;;;1.85;;
31732;SDS011;18312;51.486;7.144;2023-08-08T10:49:17;2.47;;;1.30;;
31732;SDS011;18312;51.486;7.144;2023-08-08T10:51:46;4.65;;;2.20;;
31732;SDS011;18312;51.486;7.144;2023-08-08T10:54:14;5.25;;;1.50;;
31732;SDS011;18312;51.486;7.144;2023-08-08T10:56:47;8.98;;;2.28;;
31732;SDS011;18312;51.486;7.144;2023-08-08T10:59:17;3.53;;;1.75;;
31732;SDS011;18312;51.486;7.144;2023-08-08T11:01:46;4.13;;;1.77;;
31732;SDS011;18312;51.486;7.144;2023-08-08T11:04:14;4.47;;;1.73;;
31732;SDS011;18312;51.486;7.144;2023-08-08T11:06:42;9.45;;;2.25;;
31732;SDS011;18312;51.486;7.144;2023-08-08T11:09:10;5.38;;;1.70;;
31732;SDS011;18312;51.486;7.144;2023-08-08T11:11:37;7.35;;;1.70;;
31732;SDS011;18312;51.486;7.144;2023-08-08T11:14:09;8.70;;;1.92;;
31732;SDS011;18312;51.486;7.144;2023-08-08T11:16:37;5.78;;;1.52;;
31732;SDS011;18312;51.486;7.144;2023-08-08T11:19:03;3.15;;;1.15;;
31732;SDS011;18312;51.486;7.144;2023-08-08T11:21:32;7.68;;;2.17;;
31732;SDS011;18312;51.486;7.144;2023-08-08T11:24:01;5.30;;;2.17;;
31732;SDS011;18312;51.486;7.144;2023-08-08T11:26:30;5.05;;;1.48;;
31732;SDS011;18312;51.486;7.144;2023-08-08T11:28:58;3.80;;;1.67;;
31732;SDS011;18312;51.486;7.144;2023-08-08T11:34:10;4.70;;;2.28;;
31732;SDS011;18312;51.486;7.144;2023-08-08T11:36:37;3.72;;;1.77;;
31732;SDS011;18312;51.486;7.144;2023-08-08T11:39:05;6.65;;;1.95;;
31732;SDS011;18312;51.486;7.144;2023-08-08T11:44:03;3.75;;;1.20;;
31732;SDS011;18312;51.486;7.144;2023-08-08T11:46:31;11.60;;;1.60;;
31732;SDS011;18312;51.486;7.144;2023-08-08T11:49:02;5.38;;;1.70;;
31732;SDS011;18312;51.486;7.144;2023-08-08T11:51:31;4.70;;;1.88;;
31732;SDS011;18312;51.486;7.144;2023-08-08T11:53:59;4.25;;;1.33;;
31732;SDS011;18312;51.486;7.144;2023-08-08T11:56:28;3.10;;;1.52;;
31732;SDS011;18312;51.486;7.144;2023-08-08T11:59:00;3.28;;;1.25;;
31732;SDS011;18312;51.486;7.144;2023-08-08T12:01:28;4.20;;;1.33;;
31732;SDS011;18312;51.486;7.144;2023-08-08T12:03:57;3.08;;;1.63;;
31732;SDS011;18312;51.486;7.144;2023-08-08T12:06:30;2.15;;;1.23;;
31732;SDS011;18312;51.486;7.144;2023-08-08T12:08:57;4.95;;;1.42;;
31732;SDS011;18312;51.486;7.144;2023-08-08T12:11:25;4.05;;;1.50;;
31732;SDS011;18312;51.486;7.144;2023-08-08T12:13:58;2.57;;;1.10;;
31732;SDS011;18312;51.486;7.144;2023-08-08T12:16:27;6.40;;;1.13;;
31732;SDS011;18312;51.486;7.144;2023-08-08T12:18:56;4.78;;;1.10;;
31732;SDS011;18312;51.486;7.144;2023-08-08T12:21:23;3.75;;;1.15;;
31732;SDS011;18312;51.486;7.144;2023-08-08T12:23:50;4.07;;;1.27;;
31732;SDS011;18312;51.486;7.144;2023-08-08T12:26:17;3.40;;;1.25;;
31732;SDS011;18312;51.486;7.144;2023-08-08T12:28:56;6.45;;;1.55;;
31732;SDS011;18312;51.486;7.144;2023-08-08T12:31:25;2.95;;;1.48;;
31732;SDS011;18312;51.486;7.144;2023-08-08T12:33:51;4.78;;;1.40;;
31732;SDS011;18312;51.486;7.144;2023-08-08T12:36:18;5.28;;;1.70;;
31732;SDS011;18312;51.486;7.144;2023-08-08T12:38:45;3.95;;;1.50;;
31732;SDS011;18312;51.486;7.144;2023-08-08T12:41:12;6.95;;;1.75;;
31732;SDS011;18312;51.486;7.144;2023-08-08T12:43:39;3.65;;;1.35;;
31732;SDS011;18312;51.486;7.144;2023-08-08T12:46:07;4.13;;;1.60;;
31732;SDS011;18312;51.486;7.144;2023-08-08T12:48:36;5.95;;;1.33;;
31732;SDS011;18312;51.486;7.144;2023-08-08T12:51:03;3.20;;;1.45;;
31732;SDS011;18312;51.486;7.144;2023-08-08T12:53:30;4.68;;;1.45;;
31732;SDS011;18312;51.486;7.144;2023-08-08T12:55:57;3.53;;;1.40;;
31732;SDS011;18312;51.486;7.144;2023-08-08T12:58:24;3.03;;;1.40;;
31732;SDS011;18312;51.486;7.144;2023-08-08T13:00:50;3.88;;;1.92;;
31732;SDS011;18312;51.486;7.144;2023-08-08T13:03:17;3.38;;;1.45;;
31732;SDS011;18312;51.486;7.144;2023-08-08T13:05:46;2.85;;;1.45;;
31732;SDS011;18312;51.486;7.144;2023-08-08T13:08:13;3.60;;;1.35;;
31732;SDS011;18312;51.486;7.144;2023-08-08T13:10:40;6.68;;;2.05;;
31732;SDS011;18312;51.486;7.144;2023-08-08T13:13:07;3.30;;;1.80;;
31732;SDS011;18312;51.486;7.144;2023-08-08T13:15:34;5.22;;;1.63;;
31732;SDS011;18312;51.486;7.144;2023-08-08T13:18:01;8.13;;;1.90;;
31732;SDS011;18312;51.486;7.144;2023-08-08T13:20:28;3.63;;;1.48;;
31732;SDS011;18312;51.486;7.144;2023-08-08T13:22:56;4.90;;;1.95;;
31732;SDS011;18312;51.486;7.144;2023-08-08T13:25:25;7.63;;;2.33;;
31732;SDS011;18312;51.486;7.144;2023-08-08T13:27:51;7.65;;;1.70;;
31732;SDS011;18312;51.486;7.144;2023-08-08T13:30:18;6.68;;;1.20;;
31732;SDS011;18312;51.486;7.144;2023-08-08T13:32:46;5.90;;;1.63;;
31732;SDS011;18312;51.486;7.144;2023-08-08T13:35:15;5.07;;;1.48;;
31732;SDS011;18312;51.486;7.144;2023-08-08T13:37:42;3.92;;;1.40;;
31732;SDS011;18312;51.486;7.144;2023-08-08T13:40:12;2.97;;;1.48;;
31732;SDS011;18312;51.486;7.144;2023-08-08T13:42:39;2.63;;;1.40;;
31732;SDS011;18312;51.486;7.144;2023-08-08T13:45:08;5.10;;;1.60;;
31732;SDS011;18312;51.486;7.144;2023-08-08T13:47:36;3.85;;;1.50;;
31732;SDS011;18312;51.486;7.144;2023-08-08T13:50:03;5.85;;;1.60;;
31732;SDS011;18312;51.486;7.144;2023-08-08T13:52:30;4.05;;;1.63;;
31732;SDS011;18312;51.486;7.144;2023-08-08T13:54:58;4.32;;;1.33;;
31732;SDS011;18312;51.486;7.144;2023-08-08T13:57:27;4.15;;;1.70;;
31732;SDS011;18312;51.486;7.144;2023-08-08T13:59:54;3.92;;;1.17;;
31732;SDS011;18312;51.486;7.144;2023-08-08T14:02:21;2.90;;;1.20;;
31732;SDS011;18312;51.486;7.144;2023-08-08T14:04:48;1.80;;;1.10;;
31732;SDS011;18312;51.486;7.144;2023-08-08T14:07:15;4.10;;;1.30;;
31732;SDS011;18312;51.486;7.144;2023-08-08T14:09:42;1.83;;;1.30;;
31732;SDS011;18312;51.486;7.144;2023-08-08T14:12:09;3.50;;;1.38;;
31732;SDS011;18312;51.486;7.144;2023-08-08T14:14:38;3.78;;;1.20;;
31732;SDS011;18312;51.486;7.144;2023-08-08T14:17:05;2.47;;;1.20;;
31732;SDS011;18312;51.486;7.144;2023-08-08T14:19:33;4.47;;;0.98;;
31732;SDS011;18312;51.486;7.144;2023-08-08T14:22:00;2.15;;;1.40;;
31732;SDS011;18312;51.486;7.144;2023-08-08T14:24:27;4.70;;;1.13;;
31732;SDS011;18312;51.486;7.144;2023-08-08T14:26:54;3.53;;;1.08;;
31732;SDS011;18312;51.486;7.144;2023-08-08T14:29:21;1.92;;;1.40;;
31732;SDS011;18312;51.486;7.144;2023-08-08T14:31:50;2.53;;;1.15;;
31732;SDS011;18312;51.486;7.144;2023-08-08T14:34:16;3.65;;;1.10;;
31732;SDS011;18312;51.486;7.144;2023-08-08T14:36:44;1.65;;;1.00;;
31732;SDS011;18312;51.486;7.144;2023-08-08T14:39:11;2.95;;;1.00;;
31732;SDS011;18312;51.486;7.144;2023-08-08T14:41:38;2.00;;;1.13;;
31732;SDS011;18312;51.486;7.144;2023-08-08T14:44:05;2.15;;;1.23;;
31732;SDS011;18312;51.486;7.144;2023-08-08T14:46:32;1.58;;;1.10;;
31732;SDS011;18312;51.486;7.144;2023-08-08T14:49:01;5.28;;;1.27;;
31732;SDS011;18312;51.486;7.144;2023-08-08T14:51:30;3.85;;;1.42;;
31732;SDS011;18312;51.486;7.144;2023-08-08T14:53:57;1.77;;;1.02;;
31732;SDS011;18312;51.486;7.144;2023-08-08T14:56:25;1.65;;;0.88;;
31732;SDS011;18312;51.486;7.144;2023-08-08T14:58:53;5.97;;;0.90;;